Time;durP1;ratioP1;P1;durP2;ratioP2;P2;SDS_P1;SDS_P2;PMS_P1;PMS_P2;Temp;Humidity;BMP_temperature;BMP_pressure;BME280_temperature;BME280_humidity;BME280_pressure;Samples;Min_cycle;Max_cycle;Signal;HPM_P1;HPM_P2
2024/01/31 00:02:20;;;;;;;14.30;8.35;;;9.80;97.60;;;;;;6220195;23;20016;-73
2024/01/31 00:05:06;;;;;;;9.38;6.95;;;9.80;97.70;;;;;;6241086;23;20014;-72
2024/01/31 00:07:52;;;;;;;11.55;7.50;;;9.80;97.80;;;;;;6219773;23;20012;-72
2024/01/31 00:10:38;;;;;;;10.27;7.00;;;9.80;97.80;;;;;;6241747;23;20341;-72
2024/01/31 00:13:25;;;;;;;10.07;7.90;;;9.80;97.90;;;;;;6243066;23;20027;-73
2024/01/31 00:16:13;;;;;;;12.52;8.15;;;9.80;97.90;;;;;;6242227;23;20012;-73
2024/01/31 00:19:01;;;;;;;10.45;6.85;;;9.90;97.90;;;;;;6243528;23;20030;-73
2024/01/31 00:21:46;;;;;;;12.73;7.28;;;9.90;97.90;;;;;;6241630;23;20020;-73
2024/01/31 00:24:32;;;;;;;11.00;7.25;;;9.90;97.90;;;;;;6220277;23;20012;-73
2024/01/31 00:27:18;;;;;;;10.63;6.88;;;9.90;98.00;;;;;;6241784;23;20039;-73
2024/01/31 00:30:05;;;;;;;10.90;7.20;;;10.00;98.00;;;;;;6219912;23;20012;-73
2024/01/31 00:32:51;;;;;;;10.13;6.57;;;10.00;98.00;;;;;;6247024;23;20198;-73
2024/01/31 00:35:37;;;;;;;9.68;6.78;;;10.00;98.00;;;;;;6240534;23;20008;-73
2024/01/31 00:38:23;;;;;;;11.43;6.40;;;10.10;98.00;;;;;;6260210;23;20013;-72
2024/01/31 00:41:09;;;;;;;8.15;6.25;;;10.10;98.00;;;;;;6258756;23;20449;-73
2024/01/31 00:43:54;;;;;;;9.18;6.13;;;10.10;98.00;;;;;;6255095;23;20056;-73
2024/01/31 00:46:42;;;;;;;8.68;6.03;;;10.10;97.90;;;;;;6241889;23;20015;-73
2024/01/31 00:49:28;;;;;;;10.70;6.07;;;10.20;98.00;;;;;;6240939;23;20069;-73
2024/01/31 00:52:16;;;;;;;8.27;6.28;;;10.20;97.90;;;;;;6242066;23;20087;-72
2024/01/31 00:55:02;;;;;;;8.10;6.80;;;10.20;97.90;;;;;;6242572;23;20016;-71
2024/01/31 00:57:49;;;;;;;11.05;6.80;;;10.30;97.90;;;;;;6219781;23;20333;-71
2024/01/31 01:00:35;;;;;;;10.70;6.07;;;10.30;97.90;;;;;;6241456;23;20018;-72
2024/01/31 01:03:21;;;;;;;8.05;5.78;;;10.30;97.90;;;;;;6219970;23;20055;-74
2024/01/31 01:06:07;;;;;;;10.10;6.57;;;10.30;97.80;;;;;;6220198;23;20055;-74
2024/01/31 01:08:53;;;;;;;9.27;6.53;;;10.30;97.80;;;;;;6219626;23;20018;-74
2024/01/31 01:11:38;;;;;;;8.18;6.03;;;10.40;97.80;;;;;;6240435;23;20015;-73
2024/01/31 01:14:24;;;;;;;8.85;6.03;;;10.40;97.80;;;;;;6240932;23;20012;-73
2024/01/31 01:17:10;;;;;;;8.95;5.65;;;10.40;97.70;;;;;;6241870;23;20079;-72
2024/01/31 01:19:56;;;;;;;10.00;6.55;;;10.40;97.70;;;;;;6242059;23;20035;-73
2024/01/31 01:22:42;;;;;;;8.23;5.72;;;10.40;97.70;;;;;;6239626;23;20024;-72
2024/01/31 01:25:28;;;;;;;7.70;5.47;;;10.40;97.70;;;;;;6219790;23;20524;-73
2024/01/31 01:28:14;;;;;;;7.32;5.75;;;10.40;97.60;;;;;;6239835;23;20009;-72
2024/01/31 01:31:00;;;;;;;8.27;5.57;;;10.50;97.60;;;;;;6238688;23;20012;-73
2024/01/31 01:33:46;;;;;;;7.90;5.05;;;10.50;97.60;;;;;;6241371;23;20424;-73
2024/01/31 01:36:32;;;;;;;6.80;5.10;;;10.50;97.60;;;;;;6244382;22;20349;-73
2024/01/31 01:39:18;;;;;;;6.18;4.32;;;10.50;97.60;;;;;;6241372;23;20061;-73
2024/01/31 01:42:10;;;;;;;6.38;4.90;;;10.50;97.50;;;;;;6240180;23;20012;-73
2024/01/31 01:44:56;;;;;;;6.15;4.47;;;10.50;97.40;;;;;;6242530;23;20111;-73
2024/01/31 01:47:48;;;;;;;6.32;4.50;;;10.60;97.40;;;;;;6241910;23;20047;-74
2024/01/31 01:50:34;;;;;;;7.75;4.45;;;10.50;97.30;;;;;;6241807;23;20231;-69
2024/01/31 01:53:20;;;;;;;9.18;4.88;;;10.60;97.30;;;;;;6239962;23;20009;-71
2024/01/31 01:56:08;;;;;;;6.22;3.78;;;10.60;97.30;;;;;;6219745;23;20016;-73
2024/01/31 01:58:56;;;;;;;4.72;3.22;;;10.60;97.20;;;;;;6241974;23;20563;-73
2024/01/31 02:01:42;;;;;;;4.82;3.53;;;10.60;97.10;;;;;;6242008;23;20094;-73
2024/01/31 02:04:29;;;;;;;4.40;2.72;;;10.60;97.00;;;;;;6217715;23;20012;-73
2024/01/31 02:07:24;;;;;;;5.57;3.00;;;10.60;96.90;;;;;;6219315;23;20031;-72
2024/01/31 02:10:10;;;;;;;4.18;2.75;;;10.60;96.90;;;;;;6242989;23;20035;-72
2024/01/31 02:12:56;;;;;;;4.78;2.92;;;10.60;96.80;;;;;;6244939;23;20008;-73
2024/01/31 02:15:55;;;;;;;5.38;2.78;;;10.60;96.70;;;;;;6221149;23;20020;-73
2024/01/31 02:18:41;;;;;;;4.47;2.28;;;10.60;96.80;;;;;;6221463;23;20345;-73
2024/01/31 02:21:28;;;;;;;3.40;2.40;;;10.60;96.80;;;;;;6241778;23;20020;-72
2024/01/31 02:24:14;;;;;;;3.50;2.20;;;10.50;96.80;;;;;;6243986;23;20433;-73
2024/01/31 02:27:00;;;;;;;3.42;2.25;;;10.50;96.90;;;;;;6242316;23;20046;-72
2024/01/31 02:29:46;;;;;;;4.65;2.80;;;10.60;97.00;;;;;;6221012;23;20082;-72
2024/01/31 02:32:32;;;;;;;3.40;2.30;;;10.50;97.00;;;;;;6243967;23;20016;-72
2024/01/31 02:35:17;;;;;;;5.35;2.20;;;10.50;97.00;;;;;;6241520;23;20437;-72
2024/01/31 02:38:04;;;;;;;4.20;2.65;;;10.50;97.00;;;;;;6242390;23;20341;-72
2024/01/31 02:40:50;;;;;;;4.38;2.17;;;10.50;97.00;;;;;;6243369;23;20009;-72
2024/01/31 02:43:36;;;;;;;6.50;2.20;;;10.50;97.00;;;;;;6221008;23;20400;-72
2024/01/31 02:46:21;;;;;;;6.60;2.47;;;10.50;97.00;;;;;;6243608;23;20015;-71
2024/01/31 02:49:08;;;;;;;3.10;2.25;;;10.50;97.00;;;;;;6243733;23;20008;-71
2024/01/31 02:51:53;;;;;;;2.97;2.05;;;10.50;97.00;;;;;;6241892;23;20004;-71
2024/01/31 02:54:39;;;;;;;4.38;2.20;;;10.50;97.00;;;;;;6243761;23;20437;-72
2024/01/31 02:57:26;;;;;;;4.80;2.30;;;10.50;97.00;;;;;;6242526;23;20449;-71
2024/01/31 03:00:12;;;;;;;5.10;2.53;;;10.50;97.00;;;;;;6221348;23;20019;-71
2024/01/31 03:02:58;;;;;;;5.15;2.00;;;10.50;97.00;;;;;;6243552;23;20461;-71
2024/01/31 03:05:44;;;;;;;2.42;1.80;;;10.50;96.90;;;;;;6221250;23;20004;-71
2024/01/31 03:08:30;;;;;;;2.67;1.90;;;10.40;96.90;;;;;;6220980;23;20070;-72
2024/01/31 03:11:16;;;;;;;6.32;1.80;;;10.40;96.90;;;;;;6243421;23;20468;-72
2024/01/31 03:14:02;;;;;;;2.60;1.73;;;10.40;96.90;;;;;;6243293;23;20348;-71
2024/01/31 03:16:48;;;;;;;2.45;1.50;;;10.40;96.90;;;;;;6241523;23;20014;-71
2024/01/31 03:19:35;;;;;;;3.80;2.28;;;10.40;96.90;;;;;;6243055;23;20031;-72
2024/01/31 03:22:21;;;;;;;3.60;1.80;;;10.40;97.00;;;;;;6243215;23;20063;-72
2024/01/31 03:25:07;;;;;;;2.58;1.60;;;10.40;97.00;;;;;;6220832;23;20008;-72
2024/01/31 03:27:53;;;;;;;2.33;1.60;;;10.30;97.00;;;;;;6242818;23;20008;-72
2024/01/31 03:30:39;;;;;;;2.15;1.50;;;10.30;97.00;;;;;;6241056;23;20008;-72
2024/01/31 03:33:25;;;;;;;2.30;1.40;;;10.30;97.10;;;;;;6241428;23;20047;-73
2024/01/31 03:36:12;;;;;;;1.77;1.20;;;10.20;97.10;;;;;;6243271;23;20012;-73
2024/01/31 03:38:59;;;;;;;2.58;1.23;;;10.20;97.10;;;;;;6243492;23;20347;-72
2024/01/31 03:41:45;;;;;;;1.77;1.00;;;10.20;97.10;;;;;;6242161;23;20456;-72
2024/01/31 03:44:32;;;;;;;1.00;1.00;;;10.20;97.20;;;;;;6220559;23;20058;-72
2024/01/31 03:47:18;;;;;;;2.40;1.30;;;10.10;97.20;;;;;;6241364;23;20087;-72
2024/01/31 03:50:04;;;;;;;1.35;0.98;;;10.10;97.20;;;;;;6242580;23;20008;-74
2024/01/31 03:52:50;;;;;;;1.10;0.82;;;10.00;97.30;;;;;;6240672;23;20345;-73
2024/01/31 03:55:36;;;;;;;1.60;1.02;;;10.00;97.30;;;;;;6257181;23;20012;-73
2024/01/31 03:58:22;;;;;;;1.83;1.00;;;10.00;97.30;;;;;;6240664;23;20054;-74
2024/01/31 04:01:13;;;;;;;1.25;0.90;;;10.00;97.40;;;;;;6263572;23;20024;-73
2024/01/31 04:03:59;;;;;;;1.38;0.95;;;10.00;97.40;;;;;;6263641;23;20020;-72
2024/01/31 04:06:45;;;;;;;0.73;0.73;;;10.00;97.40;;;;;;6244421;23;20062;-73
2024/01/31 04:09:31;;;;;;;2.13;0.93;;;10.00;97.50;;;;;;6243045;23;20213;-73
2024/01/31 04:12:17;;;;;;;1.25;0.90;;;10.00;97.50;;;;;;6243250;23;20014;-73
2024/01/31 04:15:03;;;;;;;2.17;1.08;;;9.90;97.60;;;;;;6241298;23;20026;-73
2024/01/31 04:17:49;;;;;;;1.40;1.10;;;9.90;97.60;;;;;;6240348;23;20445;-73
2024/01/31 04:20:37;;;;;;;1.63;1.02;;;9.90;97.70;;;;;;6240111;23;20352;-73
2024/01/31 04:23:23;;;;;;;1.42;1.10;;;9.90;97.70;;;;;;6241712;23;20028;-73
2024/01/31 04:26:09;;;;;;;2.03;1.13;;;9.90;97.80;;;;;;6240833;23;20012;-73
2024/01/31 04:28:54;;;;;;;3.50;1.98;;;9.90;97.80;;;;;;6242246;23;20015;-73
2024/01/31 04:31:40;;;;;;;7.63;1.65;;;9.90;97.80;;;;;;6219206;23;20456;-73
2024/01/31 04:34:26;;;;;;;1.17;0.95;;;9.90;97.90;;;;;;6220957;23;20429;-73
2024/01/31 04:37:12;;;;;;;1.75;1.23;;;9.80;97.90;;;;;;6242481;23;20023;-73
2024/01/31 04:39:58;;;;;;;2.15;1.50;;;9.90;97.90;;;;;;6220265;23;20399;-73
2024/01/31 04:42:45;;;;;;;2.33;1.50;;;9.90;98.00;;;;;;6240228;23;20440;-73
2024/01/31 04:45:30;;;;;;;2.45;1.55;;;9.80;98.00;;;;;;6241137;23;20008;-74
2024/01/31 04:48:16;;;;;;;3.42;1.65;;;9.80;98.10;;;;;;6240366;23;20008;-71
2024/01/31 04:51:03;;;;;;;2.30;1.40;;;9.80;98.10;;;;;;6219491;23;20004;-71
2024/01/31 04:53:49;;;;;;;3.13;1.15;;;9.80;98.10;;;;;;6241709;23;20449;-71
2024/01/31 04:56:36;;;;;;;1.77;1.20;;;9.80;98.10;;;;;;6219779;23;20087;-71
2024/01/31 04:59:22;;;;;;;1.33;0.98;;;9.80;98.10;;;;;;6242326;23;20089;-71
2024/01/31 05:02:09;;;;;;;1.17;0.93;;;9.80;98.20;;;;;;6240629;23;20573;-72
2024/01/31 05:04:55;;;;;;;1.20;0.85;;;9.80;98.20;;;;;;6220170;23;20015;-72
2024/01/31 05:07:40;;;;;;;1.58;1.15;;;9.80;98.20;;;;;;6242569;23;20023;-71
2024/01/31 05:10:26;;;;;;;1.75;1.20;;;9.80;98.10;;;;;;6240534;23;20016;-72
2024/01/31 05:13:13;;;;;;;1.63;1.35;;;9.80;98.20;;;;;;6242047;23;20135;-71
2024/01/31 05:15:59;;;;;;;1.27;0.98;;;9.80;98.20;;;;;;6219490;23;20012;-71
2024/01/31 05:18:45;;;;;;;1.27;0.80;;;9.70;98.30;;;;;;6219167;23;20016;-66
2024/01/31 05:21:30;;;;;;;0.60;0.60;;;9.70;98.20;;;;;;6239055;23;20030;-68
2024/01/31 05:24:17;;;;;;;0.82;0.63;;;9.70;98.20;;;;;;6240042;23;20018;-70
2024/01/31 05:27:04;;;;;;;1.00;0.80;;;9.60;98.30;;;;;;6240545;23;20071;-70
2024/01/31 05:29:50;;;;;;;3.20;1.05;;;9.60;98.30;;;;;;6242277;23;20062;-69
2024/01/31 05:32:36;;;;;;;0.95;0.80;;;9.60;98.40;;;;;;6239341;23;20008;-69
2024/01/31 05:35:22;;;;;;;2.17;1.23;;;9.60;98.50;;;;;;6216500;23;20353;-67
2024/01/31 05:38:08;;;;;;;1.83;1.13;;;9.50;98.50;;;;;;6240021;23;20016;-67
2024/01/31 05:40:54;;;;;;;5.93;1.30;;;9.50;98.60;;;;;;6218980;23;20012;-67
2024/01/31 05:43:40;;;;;;;1.42;0.85;;;9.50;98.70;;;;;;6241446;23;20016;-67
2024/01/31 05:46:25;;;;;;;1.00;0.80;;;9.40;98.60;;;;;;6239808;23;20498;-67
2024/01/31 05:49:11;;;;;;;1.10;0.85;;;9.40;98.60;;;;;;6241469;23;20504;-66
2024/01/31 05:51:57;;;;;;;1.20;0.85;;;9.40;98.60;;;;;;6240460;23;20445;-67
2024/01/31 05:54:43;;;;;;;1.17;0.80;;;9.30;98.70;;;;;;6241523;23;20517;-67
2024/01/31 05:57:29;;;;;;;1.15;0.90;;;9.30;98.90;;;;;;6242123;23;20009;-67
2024/01/31 06:00:16;;;;;;;1.10;0.80;;;9.20;99.00;;;;;;6219823;23;20016;-67
2024/01/31 06:03:02;;;;;;;1.25;0.70;;;9.10;99.00;;;;;;6242093;23;20024;-67
2024/01/31 06:05:49;;;;;;;2.08;1.10;;;9.00;99.20;;;;;;6241489;23;20009;-68
2024/01/31 06:08:35;;;;;;;1.67;1.00;;;9.00;99.20;;;;;;6240378;23;20012;-67
2024/01/31 06:11:20;;;;;;;1.67;1.00;;;9.00;99.30;;;;;;6241922;23;20044;-67
2024/01/31 06:14:06;;;;;;;0.80;0.80;;;9.00;99.40;;;;;;6217737;23;20061;-67
2024/01/31 06:16:52;;;;;;;1.60;1.00;;;8.90;99.50;;;;;;6240185;23;20083;-67
2024/01/31 06:19:38;;;;;;;1.42;0.90;;;8.80;99.60;;;;;;6240048;23;20012;-67
2024/01/31 06:22:24;;;;;;;1.10;1.00;;;8.80;99.60;;;;;;6241454;23;20067;-67
2024/01/31 06:25:10;;;;;;;2.40;0.95;;;8.80;99.60;;;;;;6239760;23;20012;-67
2024/01/31 06:27:56;;;;;;;1.52;1.00;;;8.80;99.70;;;;;;6241132;23;20086;-66
2024/01/31 06:30:44;;;;;;;2.28;1.05;;;8.70;99.80;;;;;;6240078;23;20071;-66
2024/01/31 06:33:34;;;;;;;2.80;1.42;;;8.70;99.40;;;;;;6239290;23;20009;-67
2024/01/31 06:36:20;;;;;;;1.10;0.90;;;8.70;99.30;;;;;;6239944;23;20106;-68
2024/01/31 06:39:06;;;;;;;1.98;1.20;;;8.60;99.20;;;;;;6240549;23;20009;-66
2024/01/31 06:41:52;;;;;;;1.70;1.20;;;8.60;99.10;;;;;;6239749;23;20441;-66
2024/01/31 06:44:38;;;;;;;1.95;1.00;;;8.50;99.10;;;;;;6239304;23;20183;-67
2024/01/31 06:47:24;;;;;;;0.95;0.80;;;8.50;98.80;;;;;;6242083;23;20058;-67
2024/01/31 06:50:11;;;;;;;0.95;0.80;;;8.50;98.80;;;;;;6239891;23;20059;-67
2024/01/31 06:52:57;;;;;;;1.42;0.98;;;8.50;98.80;;;;;;6240401;23;20408;-67
2024/01/31 06:55:43;;;;;;;1.08;0.82;;;8.50;98.70;;;;;;6241391;23;20012;-67
2024/01/31 06:58:31;;;;;;;1.75;1.08;;;8.40;98.60;;;;;;6243562;23;20395;-67
2024/01/31 07:01:17;;;;;;;1.50;0.90;;;8.40;98.50;;;;;;6243669;23;20437;-67
2024/01/31 07:04:03;;;;;;;2.45;1.00;;;8.40;98.30;;;;;;6241522;23;20445;-67
2024/01/31 07:06:49;;;;;;;0.98;0.73;;;8.40;98.20;;;;;;6243538;23;20012;-67
2024/01/31 07:09:35;;;;;;;1.20;0.90;;;8.30;98.00;;;;;;6240723;23;20036;-67
2024/01/31 07:12:21;;;;;;;0.85;0.57;;;8.20;97.90;;;;;;6260394;23;20077;-66
2024/01/31 07:15:07;;;;;;;0.70;0.70;;;8.20;97.90;;;;;;6268402;23;20027;-66
2024/01/31 07:17:53;;;;;;;1.45;0.73;;;8.20;97.80;;;;;;6242687;23;20009;-67
2024/01/31 07:20:39;;;;;;;1.77;0.77;;;8.30;98.00;;;;;;6243862;23;20043;-67
2024/01/31 07:23:25;;;;;;;1.05;0.80;;;8.30;98.00;;;;;;6220553;23;20030;-67
2024/01/31 07:26:20;;;;;;;1.33;0.93;;;8.40;98.00;;;;;;6242698;23;20004;-67
2024/01/31 07:29:10;;;;;;;1.25;0.77;;;8.40;97.80;;;;;;6239705;23;20001;-67
2024/01/31 07:31:56;;;;;;;2.55;0.90;;;8.40;97.80;;;;;;6241641;23;20016;-68
2024/01/31 07:34:41;;;;;;;3.85;1.08;;;8.50;97.70;;;;;;6241715;23;20016;-68
2024/01/31 07:37:27;;;;;;;1.70;0.90;;;8.50;97.60;;;;;;6241002;23;20012;-68
2024/01/31 07:40:13;;;;;;;1.20;0.73;;;8.50;97.60;;;;;;6239651;23;20004;-68
2024/01/31 07:42:59;;;;;;;1.30;1.00;;;8.50;97.60;;;;;;6242800;23;20024;-68
2024/01/31 07:45:45;;;;;;;1.67;1.20;;;8.50;97.60;;;;;;6240543;23;20008;-68
2024/01/31 07:48:32;;;;;;;2.60;1.10;;;8.50;97.50;;;;;;6239836;23;20020;-68
2024/01/31 07:51:18;;;;;;;2.65;1.15;;;8.50;97.40;;;;;;6239694;23;20414;-68
2024/01/31 07:54:04;;;;;;;1.75;0.93;;;8.50;97.40;;;;;;6243045;23;20038;-68
2024/01/31 07:56:50;;;;;;;1.50;1.00;;;8.50;97.40;;;;;;6241626;23;20039;-68
2024/01/31 07:59:36;;;;;;;1.45;0.90;;;8.40;97.10;;;;;;6242439;23;20008;-68
2024/01/31 08:02:22;;;;;;;6.13;1.58;;;8.30;96.90;;;;;;6240793;23;20535;-68
2024/01/31 08:05:08;;;;;;;4.95;1.33;;;8.30;97.10;;;;;;6239991;23;20019;-68
2024/01/31 08:07:54;;;;;;;10.95;1.90;;;8.30;97.10;;;;;;6241077;23;20012;-68
2024/01/31 08:10:40;;;;;;;24.60;4.75;;;8.20;97.00;;;;;;6219408;23;20008;-68
2024/01/31 08:13:26;;;;;;;23.58;4.00;;;8.20;97.20;;;;;;6242360;23;20023;-68
2024/01/31 08:16:12;;;;;;;4.50;1.60;;;8.20;97.30;;;;;;6240727;23;20065;-67
2024/01/31 08:18:58;;;;;;;3.50;1.70;;;8.30;97.20;;;;;;6240224;23;20019;-68
2024/01/31 08:21:44;;;;;;;4.20;1.70;;;8.30;97.30;;;;;;6240684;23;20027;-66
2024/01/31 08:24:30;;;;;;;3.17;1.65;;;8.30;97.20;;;;;;6239733;23;20016;-67
2024/01/31 08:27:18;;;;;;;2.97;1.30;;;8.30;97.30;;;;;;6240809;23;20008;-67
2024/01/31 08:30:05;;;;;;;2.95;1.40;;;8.30;97.20;;;;;;6241227;23;20016;-67
2024/01/31 08:32:51;;;;;;;2.55;1.48;;;8.30;97.10;;;;;;6240843;23;20012;-67
2024/01/31 08:35:37;;;;;;;4.90;1.20;;;8.20;97.20;;;;;;6240566;23;20008;-68
2024/01/31 08:38:23;;;;;;;4.63;1.42;;;8.20;97.30;;;;;;6240409;23;20019;-67
2024/01/31 08:41:11;;;;;;;2.50;1.35;;;8.30;97.20;;;;;;6239735;23;20008;-67
2024/01/31 08:43:57;;;;;;;2.78;1.38;;;8.30;97.30;;;;;;6241911;23;20016;-67
2024/01/31 08:46:43;;;;;;;4.15;1.27;;;8.40;97.20;;;;;;6242652;23;20008;-67
2024/01/31 08:49:29;;;;;;;2.83;1.25;;;8.40;97.20;;;;;;6219876;23;20034;-67
2024/01/31 08:52:15;;;;;;;1.30;1.10;;;8.40;97.10;;;;;;6240785;23;20022;-67
2024/01/31 08:55:01;;;;;;;2.78;1.05;;;8.50;97.20;;;;;;6240018;23;20043;-67
2024/01/31 08:57:47;;;;;;;2.75;1.75;;;8.50;97.20;;;;;;6242304;23;20337;-67
2024/01/31 09:00:32;;;;;;;1.85;1.23;;;8.50;97.20;;;;;;6240628;23;20087;-68
2024/01/31 09:03:18;;;;;;;2.00;1.33;;;8.50;97.10;;;;;;6240694;23;20040;-67
2024/01/31 09:06:05;;;;;;;1.98;1.05;;;8.50;97.10;;;;;;6241266;23;20019;-67
2024/01/31 09:08:51;;;;;;;2.13;1.10;;;8.50;97.00;;;;;;6242998;23;20090;-67
2024/01/31 09:11:37;;;;;;;6.22;1.98;;;8.50;96.80;;;;;;6240298;23;20089;-67
2024/01/31 09:14:23;;;;;;;2.38;1.55;;;8.40;96.70;;;;;;6240306;23;20098;-67
2024/01/31 09:17:09;;;;;;;2.92;1.52;;;8.30;96.70;;;;;;6239843;23;20013;-66
2024/01/31 09:19:55;;;;;;;2.40;1.30;;;8.30;96.80;;;;;;6240635;23;20016;-67
2024/01/31 09:22:41;;;;;;;1.67;1.00;;;8.30;96.90;;;;;;6219543;23;20504;-67
2024/01/31 09:25:27;;;;;;;1.60;1.10;;;8.30;96.90;;;;;;6238799;23;20018;-67
2024/01/31 09:28:13;;;;;;;12.48;1.90;;;8.20;96.90;;;;;;6219113;23;20012;-69
2024/01/31 09:30:58;;;;;;;1.25;1.00;;;8.00;96.90;;;;;;6240690;23;20008;-68
2024/01/31 09:33:44;;;;;;;2.03;1.00;;;8.00;97.00;;;;;;6219557;23;20338;-67
2024/01/31 09:36:30;;;;;;;1.27;1.13;;;8.00;96.80;;;;;;6241267;23;20008;-67
2024/01/31 09:39:16;;;;;;;1.88;1.05;;;7.80;96.70;;;;;;6241908;23;20334;-66
2024/01/31 09:42:02;;;;;;;1.38;0.90;;;7.80;96.90;;;;;;6218134;23;20019;-67
2024/01/31 09:44:50;;;;;;;5.43;1.05;;;7.90;96.80;;;;;;6242278;23;20154;-67
2024/01/31 09:47:40;;;;;;;1.88;1.08;;;7.90;96.80;;;;;;6240248;23;20150;-67
2024/01/31 09:50:26;;;;;;;2.88;1.00;;;8.00;96.80;;;;;;6218742;23;20012;-67
2024/01/31 09:53:14;;;;;;;2.60;1.20;;;8.00;96.70;;;;;;6241977;23;20062;-67
2024/01/31 09:56:00;;;;;;;2.38;1.27;;;8.10;96.70;;;;;;6241933;23;20004;-67
2024/01/31 09:58:47;;;;;;;3.20;1.98;;;8.10;96.60;;;;;;6239539;23;20012;-67
2024/01/31 10:01:33;;;;;;;5.45;1.40;;;8.30;96.60;;;;;;6241005;23;20087;-66
2024/01/31 10:04:19;;;;;;;3.15;1.60;;;8.30;96.50;;;;;;6239707;23;20052;-66
2024/01/31 10:07:07;;;;;;;1.40;1.08;;;8.40;96.50;;;;;;6241424;23;20021;-66
2024/01/31 10:09:54;;;;;;;2.10;1.00;;;8.40;96.40;;;;;;6240086;23;20539;-66
2024/01/31 10:12:40;;;;;;;4.05;1.48;;;8.40;96.10;;;;;;6242269;23;20036;-66
2024/01/31 10:15:26;;;;;;;1.98;1.10;;;8.40;96.10;;;;;;6240041;23;20352;-66
2024/01/31 10:18:12;;;;;;;5.40;1.40;;;8.50;96.10;;;;;;6236709;23;20191;-66
2024/01/31 10:20:58;;;;;;;3.75;1.50;;;8.60;96.30;;;;;;6237859;23;20047;-66
2024/01/31 10:23:55;;;;;;;1.98;1.23;;;8.60;96.00;;;;;;6240078;23;20058;-66
2024/01/31 10:26:41;;;;;;;2.42;1.33;;;8.60;95.80;;;;;;6250252;23;20032;-68
2024/01/31 10:29:27;;;;;;;1.00;0.75;;;8.60;96.00;;;;;;6262515;23;20014;-65
2024/01/31 10:32:15;;;;;;;2.58;1.50;;;8.60;95.80;;;;;;6246564;23;20004;-66
2024/01/31 10:35:03;;;;;;;3.53;1.80;;;8.60;95.80;;;;;;6244073;23;20053;-66
2024/01/31 10:37:50;;;;;;;3.75;1.35;;;8.70;95.80;;;;;;6240728;23;20016;-66
2024/01/31 10:40:37;;;;;;;2.83;1.75;;;8.80;95.80;;;;;;6243032;23;20012;-63
2024/01/31 10:43:24;;;;;;;5.65;1.92;;;8.90;95.80;;;;;;6242113;23;20016;-65
2024/01/31 10:46:10;;;;;;;2.85;1.48;;;8.90;95.80;;;;;;6243895;23;20004;-65
2024/01/31 10:48:56;;;;;;;3.70;1.30;;;8.90;95.80;;;;;;6240879;23;20022;-65
2024/01/31 10:51:49;;;;;;;2.90;1.00;;;8.90;95.60;;;;;;6241590;23;20345;-66
2024/01/31 10:54:39;;;;;;;4.53;1.10;;;9.00;95.60;;;;;;6242479;23;20008;-66
2024/01/31 10:57:26;;;;;;;1.90;0.95;;;8.90;95.50;;;;;;6242683;23;20012;-66
2024/01/31 11:00:28;;;;;;;1.08;1.00;;;8.90;95.50;;;;;;6220646;23;20030;-66
2024/01/31 11:03:15;;;;;;;3.05;1.63;;;8.90;95.50;;;;;;6240682;23;20020;-66
2024/01/31 11:06:02;;;;;;;2.30;1.58;;;8.90;95.50;;;;;;6243438;23;20014;-66
2024/01/31 11:08:48;;;;;;;6.13;1.70;;;8.90;95.40;;;;;;6241321;23;20008;-65
2024/01/31 11:11:34;;;;;;;4.78;1.65;;;8.80;95.30;;;;;;6241253;23;20031;-65
2024/01/31 11:14:28;;;;;;;5.50;1.90;;;8.80;95.30;;;;;;6240693;23;20091;-66
2024/01/31 11:17:17;;;;;;;3.03;1.50;;;8.70;95.20;;;;;;6241846;23;20465;-65
2024/01/31 11:20:04;;;;;;;4.72;2.03;;;8.50;95.10;;;;;;6241709;23;20023;-65
2024/01/31 11:22:52;;;;;;;7.07;2.25;;;8.40;95.20;;;;;;6242365;23;20020;-65
2024/01/31 11:25:38;;;;;;;4.53;2.42;;;8.20;95.20;;;;;;6241659;23;20040;-66
2024/01/31 11:28:25;;;;;;;6.13;2.25;;;8.20;95.20;;;;;;6241859;23;20459;-66
2024/01/31 11:31:11;;;;;;;4.43;2.33;;;8.10;95.30;;;;;;6221122;23;20020;-65
2024/01/31 11:33:59;;;;;;;7.15;2.38;;;8.20;95.30;;;;;;6241668;23;20337;-65
2024/01/31 11:36:45;;;;;;;5.18;2.00;;;8.10;95.20;;;;;;6240642;23;20126;-65
2024/01/31 11:39:31;;;;;;;5.75;2.08;;;8.10;95.20;;;;;;6219780;23;20015;-65
2024/01/31 11:42:17;;;;;;;4.50;2.03;;;8.20;95.20;;;;;;6241372;23;20012;-65
2024/01/31 11:45:04;;;;;;;3.28;1.92;;;8.10;95.00;;;;;;6220448;23;20389;-66
2024/01/31 11:47:52;;;;;;;3.97;1.90;;;8.00;95.00;;;;;;6240201;23;20429;-65
2024/01/31 11:50:37;;;;;;;5.45;1.70;;;8.00;95.00;;;;;;6241914;23;20008;-65
2024/01/31 11:53:24;;;;;;;4.88;2.03;;;8.00;95.20;;;;;;6241150;23;20471;-65
2024/01/31 11:56:10;;;;;;;6.93;2.05;;;8.00;95.30;;;;;;6241801;23;20087;-65
2024/01/31 11:58:59;;;;;;;4.72;2.20;;;8.10;95.40;;;;;;6243180;23;20338;-65
2024/01/31 12:01:45;;;;;;;4.13;2.25;;;8.10;95.40;;;;;;6242081;23;20062;-65
2024/01/31 12:04:31;;;;;;;4.47;1.92;;;8.10;95.40;;;;;;6242880;23;20020;-66
2024/01/31 12:07:18;;;;;;;2.72;1.73;;;8.20;95.50;;;;;;6243022;23;20464;-66
2024/01/31 12:10:06;;;;;;;4.30;1.90;;;8.20;95.50;;;;;;6240951;23;20016;-66
2024/01/31 12:12:55;;;;;;;4.65;1.50;;;8.30;95.40;;;;;;6219989;23;20461;-66
2024/01/31 12:15:41;;;;;;;2.25;1.52;;;8.40;95.40;;;;;;6242229;23;20199;-67
2024/01/31 12:18:27;;;;;;;4.53;1.50;;;8.40;95.30;;;;;;6237794;23;20020;-66
2024/01/31 16:16:37;;;;;;;5.45;3.30;;;8.10;92.90;;;;;;6235555;22;20457;-68
2024/01/31 16:19:23;;;;;;;6.93;3.63;;;8.10;92.90;;;;;;6242082;23;20023;-68
2024/01/31 16:22:09;;;;;;;4.88;3.40;;;8.10;93.00;;;;;;6240677;23;20012;-71
2024/01/31 16:24:55;;;;;;;5.22;3.55;;;8.10;92.90;;;;;;6240501;23;20023;-68
2024/01/31 16:27:42;;;;;;;5.78;4.03;;;8.10;92.90;;;;;;6241615;23;20004;-67
2024/01/31 16:30:27;;;;;;;6.15;4.13;;;8.10;92.90;;;;;;6242557;23;20008;-68
2024/01/31 16:33:13;;;;;;;5.72;3.40;;;8.10;92.90;;;;;;6240197;23;20034;-67
2024/01/31 16:35:59;;;;;;;4.65;3.33;;;8.10;92.80;;;;;;6239986;23;20094;-70
2024/01/31 16:38:46;;;;;;;4.88;4.18;;;8.10;92.80;;;;;;6216893;23;20012;-69
2024/01/31 16:41:32;;;;;;;4.35;3.67;;;8.10;92.80;;;;;;6239767;23;20016;-68
2024/01/31 16:44:18;;;;;;;4.55;2.88;;;8.10;92.80;;;;;;6241515;23;20020;-69
2024/01/31 16:47:04;;;;;;;3.20;2.85;;;8.00;92.70;;;;;;6242419;23;20015;-67
2024/01/31 16:49:50;;;;;;;4.32;2.40;;;8.00;92.70;;;;;;6241556;23;20027;-67
2024/01/31 16:52:36;;;;;;;6.05;3.25;;;8.00;92.80;;;;;;6247601;23;20091;-67
2024/01/31 16:55:22;;;;;;;4.78;3.28;;;8.00;92.80;;;;;;6257991;23;20019;-67
2024/01/31 16:58:08;;;;;;;4.40;3.00;;;8.00;92.80;;;;;;6249107;23;20027;-67
2024/01/31 17:00:54;;;;;;;6.60;3.00;;;8.10;92.80;;;;;;6241571;23;20015;-67
2024/01/31 17:03:40;;;;;;;5.25;2.72;;;8.00;92.80;;;;;;6239684;23;20078;-67
2024/01/31 17:06:26;;;;;;;7.78;3.58;;;8.10;92.80;;;;;;6219541;23;20012;-67
2024/01/31 17:09:12;;;;;;;6.07;2.60;;;8.00;92.80;;;;;;6241391;23;20016;-67
2024/01/31 17:11:58;;;;;;;4.95;2.83;;;8.10;92.80;;;;;;6240311;23;20070;-67
2024/01/31 17:14:44;;;;;;;4.85;2.40;;;8.10;92.80;;;;;;6241072;23;20043;-67
2024/01/31 17:17:30;;;;;;;3.33;2.65;;;8.10;92.80;;;;;;6239555;23;20102;-68
2024/01/31 17:20:16;;;;;;;4.40;2.92;;;8.10;92.80;;;;;;6240157;23;20008;-68
2024/01/31 17:23:02;;;;;;;4.28;3.10;;;8.10;92.80;;;;;;6239226;23;20020;-67
2024/01/31 17:25:48;;;;;;;4.05;2.47;;;8.10;92.70;;;;;;6219893;23;20032;-68
2024/01/31 17:28:34;;;;;;;4.47;2.78;;;8.10;92.70;;;;;;6240254;23;20019;-67
2024/01/31 17:31:20;;;;;;;5.60;2.20;;;8.10;92.80;;;;;;6239019;23;20036;-66
2024/01/31 17:34:05;;;;;;;4.13;2.40;;;8.10;92.80;;;;;;6239534;23;20018;-66
2024/01/31 17:36:51;;;;;;;4.93;2.55;;;8.10;92.80;;;;;;6240451;23;20008;-66
2024/01/31 17:39:37;;;;;;;5.47;2.75;;;8.10;93.00;;;;;;6219253;23;20008;-67
2024/01/31 17:42:26;;;;;;;4.35;2.78;;;8.10;92.80;;;;;;6242429;23;20012;-67
2024/01/31 17:45:13;;;;;;;5.15;2.47;;;8.10;92.80;;;;;;6239509;23;20036;-66
2024/01/31 17:47:59;;;;;;;4.40;2.92;;;8.10;92.90;;;;;;6240105;23;20036;-66
2024/01/31 17:50:47;;;;;;;3.88;2.35;;;8.10;92.90;;;;;;6238289;23;20074;-67
2024/01/31 17:53:32;;;;;;;3.25;2.30;;;8.20;92.90;;;;;;6235934;23;20008;-66
2024/01/31 17:56:21;;;;;;;2.45;1.67;;;8.20;92.90;;;;;;6240243;23;20337;-66
2024/01/31 17:59:07;;;;;;;4.72;2.88;;;8.20;92.90;;;;;;6241639;23;20012;-66
2024/01/31 18:01:53;;;;;;;6.13;3.63;;;8.20;92.90;;;;;;6238631;23;20016;-68
2024/01/31 18:04:39;;;;;;;3.53;2.47;;;8.20;92.90;;;;;;6241265;23;20218;-67
2024/01/31 18:07:26;;;;;;;4.15;2.58;;;8.20;92.90;;;;;;6218710;23;20467;-68
2024/01/31 18:10:12;;;;;;;4.57;3.30;;;8.20;92.90;;;;;;6238345;23;20016;-68
2024/01/31 18:12:58;;;;;;;7.43;5.32;;;8.20;92.90;;;;;;6241804;23;20075;-68
2024/01/31 18:15:44;;;;;;;6.20;3.90;;;8.20;92.90;;;;;;6237869;23;20322;-68
2024/01/31 18:18:31;;;;;;;4.72;3.47;;;8.20;92.90;;;;;;6239620;23;20360;-68
2024/01/31 18:21:17;;;;;;;3.15;2.38;;;8.20;92.80;;;;;;6238751;23;20493;-67
2024/01/31 18:24:04;;;;;;;5.32;2.42;;;8.20;92.80;;;;;;6238875;23;20020;-68
2024/01/31 18:26:50;;;;;;;4.35;2.05;;;8.20;92.70;;;;;;6241137;23;20008;-68
2024/01/31 18:29:37;;;;;;;3.13;1.80;;;8.20;92.70;;;;;;6239526;23;20436;-68